sensor_id;sensor_type;location;lat;lon;timestamp;P1;durP1;ratioP1;P2;durP2;ratioP2
3757;SDS011;1894;51.038;13.692;2022-09-29T00:01:04;10.30;;;6.57;;
3757;SDS011;1894;51.038;13.692;2022-09-29T00:03:32;9.37;;;7.47;;
3757;SDS011;1894;51.038;13.692;2022-09-29T00:05:59;10.00;;;7.30;;
3757;SDS011;1894;51.038;13.692;2022-09-29T00:08:27;13.60;;;7.93;;
3757;SDS011;1894;51.038;13.692;2022-09-29T00:10:56;8.73;;;6.90;;
3757;SDS011;1894;51.038;13.692;2022-09-29T00:13:23;13.53;;;7.80;;
3757;SDS011;1894;51.038;13.692;2022-09-29T00:15:55;9.90;;;7.00;;
3757;SDS011;1894;51.038;13.692;2022-09-29T00:18:24;12.33;;;7.40;;
3757;SDS011;1894;51.038;13.692;2022-09-29T00:20:56;9.93;;;7.43;;
3757;SDS011;1894;51.038;13.692;2022-09-29T00:23:29;8.27;;;5.97;;
3757;SDS011;1894;51.038;13.692;2022-09-29T00:25:59;9.63;;;6.50;;
3757;SDS011;1894;51.038;13.692;2022-09-29T00:28:33;10.17;;;6.50;;
3757;SDS011;1894;51.038;13.692;2022-09-29T00:31:03;10.13;;;6.87;;
3757;SDS011;1894;51.038;13.692;2022-09-29T00:33:33;10.60;;;6.53;;
3757;SDS011;1894;51.038;13.692;2022-09-29T00:36:03;8.03;;;5.63;;
3757;SDS011;1894;51.038;13.692;2022-09-29T00:38:36;9.60;;;6.97;;
3757;SDS011;1894;51.038;13.692;2022-09-29T00:41:04;13.70;;;8.30;;
3757;SDS011;1894;51.038;13.692;2022-09-29T00:43:47;9.80;;;6.83;;
3757;SDS011;1894;51.038;13.692;2022-09-29T00:46:19;9.93;;;6.90;;
3757;SDS011;1894;51.038;13.692;2022-09-29T00:48:53;7.73;;;6.00;;
3757;SDS011;1894;51.038;13.692;2022-09-29T00:51:29;8.90;;;6.67;;
3757;SDS011;1894;51.038;13.692;2022-09-29T00:53:58;9.67;;;7.13;;
3757;SDS011;1894;51.038;13.692;2022-09-29T00:56:26;8.33;;;6.40;;
3757;SDS011;1894;51.038;13.692;2022-09-29T00:58:59;9.80;;;6.23;;
3757;SDS011;1894;51.038;13.692;2022-09-29T01:01:32;12.87;;;6.27;;
3757;SDS011;1894;51.038;13.692;2022-09-29T01:04:01;8.30;;;6.27;;
3757;SDS011;1894;51.038;13.692;2022-09-29T01:06:49;9.37;;;5.57;;
3757;SDS011;1894;51.038;13.692;2022-09-29T01:09:24;9.20;;;6.37;;
3757;SDS011;1894;51.038;13.692;2022-09-29T01:11:57;7.07;;;5.70;;
3757;SDS011;1894;51.038;13.692;2022-09-29T01:14:26;15.93;;;6.40;;
3757;SDS011;1894;51.038;13.692;2022-09-29T01:16:55;9.20;;;6.07;;
3757;SDS011;1894;51.038;13.692;2022-09-29T01:19:26;7.07;;;5.77;;
3757;SDS011;1894;51.038;13.692;2022-09-29T01:28:05;17.63;;;6.10;;
3757;SDS011;1894;51.038;13.692;2022-09-29T01:36:40;13.93;;;6.27;;
3757;SDS011;1894;51.038;13.692;2022-09-29T01:39:38;5.03;;;4.30;;
3757;SDS011;1894;51.038;13.692;2022-09-29T01:42:17;9.93;;;4.60;;
3757;SDS011;1894;51.038;13.692;2022-09-29T01:44:58;5.87;;;4.97;;
3757;SDS011;1894;51.038;13.692;2022-09-29T01:47:47;6.50;;;4.60;;
3757;SDS011;1894;51.038;13.692;2022-09-29T01:50:21;6.10;;;5.00;;
3757;SDS011;1894;51.038;13.692;2022-09-29T01:52:59;7.43;;;5.07;;
3757;SDS011;1894;51.038;13.692;2022-09-29T01:55:32;22.40;;;5.13;;
3757;SDS011;1894;51.038;13.692;2022-09-29T01:58:06;13.13;;;5.93;;
3757;SDS011;1894;51.038;13.692;2022-09-29T02:00:42;7.37;;;5.43;;
3757;SDS011;1894;51.038;13.692;2022-09-29T02:03:27;9.87;;;6.50;;
3757;SDS011;1894;51.038;13.692;2022-09-29T02:06:16;8.17;;;4.70;;
3757;SDS011;1894;51.038;13.692;2022-09-29T02:08:51;7.97;;;5.73;;
3757;SDS011;1894;51.038;13.692;2022-09-29T02:11:21;9.53;;;6.30;;
3757;SDS011;1894;51.038;13.692;2022-09-29T02:13:50;7.23;;;5.23;;
3757;SDS011;1894;51.038;13.692;2022-09-29T02:16:39;8.33;;;5.03;;
3757;SDS011;1894;51.038;13.692;2022-09-29T02:21:52;11.00;;;7.30;;
3757;SDS011;1894;51.038;13.692;2022-09-29T02:24:20;8.93;;;6.30;;
3757;SDS011;1894;51.038;13.692;2022-09-29T02:26:49;8.60;;;5.80;;
3757;SDS011;1894;51.038;13.692;2022-09-29T02:29:17;9.53;;;6.10;;
3757;SDS011;1894;51.038;13.692;2022-09-29T02:31:44;7.63;;;4.83;;
3757;SDS011;1894;51.038;13.692;2022-09-29T02:34:15;9.03;;;6.50;;
3757;SDS011;1894;51.038;13.692;2022-09-29T02:56:41;8.80;;;7.13;;
3757;SDS011;1894;51.038;13.692;2022-09-29T03:02:36;7.40;;;5.20;;
3757;SDS011;1894;51.038;13.692;2022-09-29T03:05:16;6.73;;;4.70;;
3757;SDS011;1894;51.038;13.692;2022-09-29T03:07:46;9.70;;;6.57;;
3757;SDS011;1894;51.038;13.692;2022-09-29T03:10:13;6.83;;;5.00;;
3757;SDS011;1894;51.038;13.692;2022-09-29T03:12:42;5.20;;;4.37;;
3757;SDS011;1894;51.038;13.692;2022-09-29T03:15:09;18.37;;;5.10;;
3757;SDS011;1894;51.038;13.692;2022-09-29T03:17:39;7.07;;;5.00;;
3757;SDS011;1894;51.038;13.692;2022-09-29T03:20:07;7.30;;;5.63;;
3757;SDS011;1894;51.038;13.692;2022-09-29T03:22:35;11.67;;;6.47;;
3757;SDS011;1894;51.038;13.692;2022-09-29T03:25:03;5.53;;;3.97;;
3757;SDS011;1894;51.038;13.692;2022-09-29T03:27:32;5.10;;;4.27;;
3757;SDS011;1894;51.038;13.692;2022-09-29T03:29:59;5.20;;;4.70;;
3757;SDS011;1894;51.038;13.692;2022-09-29T03:32:26;7.40;;;4.60;;
3757;SDS011;1894;51.038;13.692;2022-09-29T03:34:53;10.23;;;6.90;;
3757;SDS011;1894;51.038;13.692;2022-09-29T03:37:21;6.40;;;4.47;;
3757;SDS011;1894;51.038;13.692;2022-09-29T03:39:48;8.50;;;5.90;;
3757;SDS011;1894;51.038;13.692;2022-09-29T03:42:15;10.40;;;5.60;;
3757;SDS011;1894;51.038;13.692;2022-09-29T03:44:42;6.67;;;4.43;;
3757;SDS011;1894;51.038;13.692;2022-09-29T03:47:09;7.63;;;4.23;;
3757;SDS011;1894;51.038;13.692;2022-09-29T03:49:36;6.57;;;4.50;;
3757;SDS011;1894;51.038;13.692;2022-09-29T03:52:03;4.93;;;3.70;;
3757;SDS011;1894;51.038;13.692;2022-09-29T03:54:30;6.60;;;4.20;;
3757;SDS011;1894;51.038;13.692;2022-09-29T03:56:57;9.13;;;3.87;;
3757;SDS011;1894;51.038;13.692;2022-09-29T03:59:24;12.53;;;7.53;;
3757;SDS011;1894;51.038;13.692;2022-09-29T04:01:51;13.07;;;4.77;;
3757;SDS011;1894;51.038;13.692;2022-09-29T04:04:18;24.80;;;15.00;;
3757;SDS011;1894;51.038;13.692;2022-09-29T04:06:46;25.73;;;13.07;;
3757;SDS011;1894;51.038;13.692;2022-09-29T04:09:13;6.93;;;5.60;;
3757;SDS011;1894;51.038;13.692;2022-09-29T04:11:40;7.17;;;4.40;;
3757;SDS011;1894;51.038;13.692;2022-09-29T04:14:07;7.23;;;4.97;;
3757;SDS011;1894;51.038;13.692;2022-09-29T04:16:34;23.23;;;14.37;;
3757;SDS011;1894;51.038;13.692;2022-09-29T04:19:01;7.50;;;4.60;;
3757;SDS011;1894;51.038;13.692;2022-09-29T04:21:29;6.87;;;4.13;;
3757;SDS011;1894;51.038;13.692;2022-09-29T04:23:56;6.50;;;4.67;;
3757;SDS011;1894;51.038;13.692;2022-09-29T04:26:23;7.43;;;4.07;;
3757;SDS011;1894;51.038;13.692;2022-09-29T04:28:50;8.10;;;5.40;;
3757;SDS011;1894;51.038;13.692;2022-09-29T04:31:17;5.97;;;3.93;;
3757;SDS011;1894;51.038;13.692;2022-09-29T04:33:44;4.70;;;4.00;;
3757;SDS011;1894;51.038;13.692;2022-09-29T04:36:11;5.70;;;4.40;;
3757;SDS011;1894;51.038;13.692;2022-09-29T04:38:38;6.23;;;4.60;;
3757;SDS011;1894;51.038;13.692;2022-09-29T04:41:05;4.40;;;3.97;;
3757;SDS011;1894;51.038;13.692;2022-09-29T04:43:32;6.80;;;4.70;;
3757;SDS011;1894;51.038;13.692;2022-09-29T04:46:00;5.17;;;3.80;;
3757;SDS011;1894;51.038;13.692;2022-09-29T04:48:31;4.20;;;3.80;;
3757;SDS011;1894;51.038;13.692;2022-09-29T04:51:01;6.30;;;4.63;;
3757;SDS011;1894;51.038;13.692;2022-09-29T04:53:29;5.80;;;3.40;;
3757;SDS011;1894;51.038;13.692;2022-09-29T04:55:57;8.17;;;4.23;;
3757;SDS011;1894;51.038;13.692;2022-09-29T04:58:24;6.70;;;3.37;;
3757;SDS011;1894;51.038;13.692;2022-09-29T05:00:51;7.60;;;3.80;;
3757;SDS011;1894;51.038;13.692;2022-09-29T05:03:18;4.20;;;3.67;;
3757;SDS011;1894;51.038;13.692;2022-09-29T05:05:45;4.40;;;3.53;;
3757;SDS011;1894;51.038;13.692;2022-09-29T05:08:12;4.63;;;3.90;;
3757;SDS011;1894;51.038;13.692;2022-09-29T05:10:39;4.67;;;4.23;;
3757;SDS011;1894;51.038;13.692;2022-09-29T05:13:06;5.70;;;3.80;;
3757;SDS011;1894;51.038;13.692;2022-09-29T05:15:33;3.50;;;3.20;;
3757;SDS011;1894;51.038;13.692;2022-09-29T05:18:01;9.90;;;5.07;;
3757;SDS011;1894;51.038;13.692;2022-09-29T05:20:28;4.33;;;3.93;;
3757;SDS011;1894;51.038;13.692;2022-09-29T05:23:07;5.03;;;4.40;;
3757;SDS011;1894;51.038;13.692;2022-09-29T05:25:36;4.47;;;3.50;;
3757;SDS011;1894;51.038;13.692;2022-09-29T05:28:04;7.73;;;4.60;;
3757;SDS011;1894;51.038;13.692;2022-09-29T05:30:31;8.23;;;4.80;;
3757;SDS011;1894;51.038;13.692;2022-09-29T05:32:58;4.90;;;3.60;;
3757;SDS011;1894;51.038;13.692;2022-09-29T05:35:25;4.57;;;4.17;;
3757;SDS011;1894;51.038;13.692;2022-09-29T05:37:52;5.43;;;4.13;;
3757;SDS011;1894;51.038;13.692;2022-09-29T05:40:19;5.63;;;4.20;;
3757;SDS011;1894;51.038;13.692;2022-09-29T05:42:50;7.27;;;4.40;;
3757;SDS011;1894;51.038;13.692;2022-09-29T05:45:17;3.73;;;3.33;;
3757;SDS011;1894;51.038;13.692;2022-09-29T05:47:45;4.07;;;3.67;;
3757;SDS011;1894;51.038;13.692;2022-09-29T05:50:12;4.73;;;3.90;;
3757;SDS011;1894;51.038;13.692;2022-09-29T05:52:39;5.93;;;3.47;;
3757;SDS011;1894;51.038;13.692;2022-09-29T05:55:06;3.70;;;3.30;;
3757;SDS011;1894;51.038;13.692;2022-09-29T05:57:35;5.53;;;3.20;;
3757;SDS011;1894;51.038;13.692;2022-09-29T06:00:03;6.50;;;3.50;;
3757;SDS011;1894;51.038;13.692;2022-09-29T06:02:38;3.77;;;3.00;;
3757;SDS011;1894;51.038;13.692;2022-09-29T06:05:05;3.80;;;3.47;;
3757;SDS011;1894;51.038;13.692;2022-09-29T06:07:32;6.60;;;3.73;;
3757;SDS011;1894;51.038;13.692;2022-09-29T06:09:59;4.17;;;3.30;;
3757;SDS011;1894;51.038;13.692;2022-09-29T06:12:26;4.07;;;3.77;;
3757;SDS011;1894;51.038;13.692;2022-09-29T06:14:53;6.10;;;4.83;;
3757;SDS011;1894;51.038;13.692;2022-09-29T06:17:20;7.70;;;3.63;;
3757;SDS011;1894;51.038;13.692;2022-09-29T06:19:47;11.57;;;4.70;;
3757;SDS011;1894;51.038;13.692;2022-09-29T06:22:14;13.07;;;4.97;;
3757;SDS011;1894;51.038;13.692;2022-09-29T06:24:41;10.27;;;6.07;;
3757;SDS011;1894;51.038;13.692;2022-09-29T06:27:08;15.07;;;6.23;;
3757;SDS011;1894;51.038;13.692;2022-09-29T06:29:36;10.83;;;5.50;;
3757;SDS011;1894;51.038;13.692;2022-09-29T06:32:03;9.37;;;5.40;;
3757;SDS011;1894;51.038;13.692;2022-09-29T06:34:30;7.17;;;5.07;;
3757;SDS011;1894;51.038;13.692;2022-09-29T06:36:57;13.57;;;5.60;;
3757;SDS011;1894;51.038;13.692;2022-09-29T06:39:43;11.40;;;5.30;;
3757;SDS011;1894;51.038;13.692;2022-09-29T06:42:10;8.43;;;6.03;;
3757;SDS011;1894;51.038;13.692;2022-09-29T06:44:38;11.23;;;5.27;;
3757;SDS011;1894;51.038;13.692;2022-09-29T06:47:05;6.83;;;5.43;;
3757;SDS011;1894;51.038;13.692;2022-09-29T06:49:32;12.77;;;5.43;;
3757;SDS011;1894;51.038;13.692;2022-09-29T06:51:59;6.80;;;5.13;;
3757;SDS011;1894;51.038;13.692;2022-09-29T06:54:39;11.90;;;5.80;;
3757;SDS011;1894;51.038;13.692;2022-09-29T06:57:07;8.97;;;6.00;;
3757;SDS011;1894;51.038;13.692;2022-09-29T06:59:35;10.07;;;5.30;;
3757;SDS011;1894;51.038;13.692;2022-09-29T07:02:10;6.77;;;4.87;;
3757;SDS011;1894;51.038;13.692;2022-09-29T07:04:37;9.77;;;4.87;;
3757;SDS011;1894;51.038;13.692;2022-09-29T07:07:04;8.57;;;5.57;;
3757;SDS011;1894;51.038;13.692;2022-09-29T07:09:31;9.70;;;5.07;;
3757;SDS011;1894;51.038;13.692;2022-09-29T07:11:58;10.80;;;6.07;;
3757;SDS011;1894;51.038;13.692;2022-09-29T07:14:26;6.57;;;5.60;;
3757;SDS011;1894;51.038;13.692;2022-09-29T07:16:53;10.33;;;5.47;;
3757;SDS011;1894;51.038;13.692;2022-09-29T07:19:21;8.40;;;6.43;;
3757;SDS011;1894;51.038;13.692;2022-09-29T07:21:48;8.00;;;5.97;;
3757;SDS011;1894;51.038;13.692;2022-09-29T07:24:15;12.50;;;5.13;;
3757;SDS011;1894;51.038;13.692;2022-09-29T07:26:43;14.90;;;5.50;;
3757;SDS011;1894;51.038;13.692;2022-09-29T07:29:10;8.90;;;5.63;;
3757;SDS011;1894;51.038;13.692;2022-09-29T07:31:41;10.07;;;4.80;;
3757;SDS011;1894;51.038;13.692;2022-09-29T07:34:17;6.27;;;5.00;;
3757;SDS011;1894;51.038;13.692;2022-09-29T07:36:46;7.60;;;5.00;;
3757;SDS011;1894;51.038;13.692;2022-09-29T07:39:13;6.20;;;4.63;;
3757;SDS011;1894;51.038;13.692;2022-09-29T07:41:40;8.93;;;4.90;;
3757;SDS011;1894;51.038;13.692;2022-09-29T07:44:07;7.10;;;5.20;;
3757;SDS011;1894;51.038;13.692;2022-09-29T07:46:34;9.07;;;5.43;;
3757;SDS011;1894;51.038;13.692;2022-09-29T07:49:01;6.50;;;4.43;;
3757;SDS011;1894;51.038;13.692;2022-09-29T07:51:28;4.77;;;4.10;;
3757;SDS011;1894;51.038;13.692;2022-09-29T07:53:59;4.40;;;4.00;;
3757;SDS011;1894;51.038;13.692;2022-09-29T07:56:28;3.30;;;3.00;;
3757;SDS011;1894;51.038;13.692;2022-09-29T07:58:55;3.77;;;3.33;;
3757;SDS011;1894;51.038;13.692;2022-09-29T08:01:23;4.43;;;4.03;;
3757;SDS011;1894;51.038;13.692;2022-09-29T08:03:51;3.60;;;3.30;;
3757;SDS011;1894;51.038;13.692;2022-09-29T08:06:21;3.10;;;2.80;;
3757;SDS011;1894;51.038;13.692;2022-09-29T08:08:51;4.13;;;3.60;;
3757;SDS011;1894;51.038;13.692;2022-09-29T08:11:29;5.70;;;4.27;;
3757;SDS011;1894;51.038;13.692;2022-09-29T08:13:59;6.23;;;5.20;;
3757;SDS011;1894;51.038;13.692;2022-09-29T08:16:26;9.60;;;4.70;;
3757;SDS011;1894;51.038;13.692;2022-09-29T08:18:53;8.23;;;5.60;;
3757;SDS011;1894;51.038;13.692;2022-09-29T08:21:21;6.60;;;5.07;;
3757;SDS011;1894;51.038;13.692;2022-09-29T08:23:48;6.03;;;5.20;;
3757;SDS011;1894;51.038;13.692;2022-09-29T08:26:16;5.70;;;4.30;;
3757;SDS011;1894;51.038;13.692;2022-09-29T08:28:58;6.20;;;5.30;;
3757;SDS011;1894;51.038;13.692;2022-09-29T08:31:34;7.63;;;4.80;;
3757;SDS011;1894;51.038;13.692;2022-09-29T08:34:03;8.30;;;5.53;;
3757;SDS011;1894;51.038;13.692;2022-09-29T08:36:31;7.00;;;5.40;;
3757;SDS011;1894;51.038;13.692;2022-09-29T08:38:58;8.23;;;5.53;;
3757;SDS011;1894;51.038;13.692;2022-09-29T08:47:11;6.50;;;5.57;;
3757;SDS011;1894;51.038;13.692;2022-09-29T08:49:51;6.50;;;4.93;;
3757;SDS011;1894;51.038;13.692;2022-09-29T08:52:28;8.87;;;5.73;;
3757;SDS011;1894;51.038;13.692;2022-09-29T08:57:49;8.90;;;5.77;;
3757;SDS011;1894;51.038;13.692;2022-09-29T09:00:39;7.00;;;5.43;;
3757;SDS011;1894;51.038;13.692;2022-09-29T09:25:32;6.77;;;5.00;;
3757;SDS011;1894;51.038;13.692;2022-09-29T09:28:11;7.57;;;5.57;;
3757;SDS011;1894;51.038;13.692;2022-09-29T09:30:49;6.17;;;5.57;;
3757;SDS011;1894;51.038;13.692;2022-09-29T09:36:17;3.63;;;3.33;;
3757;SDS011;1894;51.038;13.692;2022-09-29T09:41:44;6.37;;;3.60;;
3757;SDS011;1894;51.038;13.692;2022-09-29T09:44:20;4.77;;;4.37;;
3757;SDS011;1894;51.038;13.692;2022-09-29T09:46:57;7.50;;;3.70;;
3757;SDS011;1894;51.038;13.692;2022-09-29T09:49:40;3.70;;;3.40;;
3757;SDS011;1894;51.038;13.692;2022-09-29T09:52:21;4.20;;;3.80;;
3757;SDS011;1894;51.038;13.692;2022-09-29T09:55:15;3.80;;;2.60;;
3757;SDS011;1894;51.038;13.692;2022-09-29T10:01:06;2.70;;;1.60;;
3757;SDS011;1894;51.038;13.692;2022-09-29T10:03:35;1.83;;;1.60;;
3757;SDS011;1894;51.038;13.692;2022-09-29T10:06:05;4.80;;;2.60;;
3757;SDS011;1894;51.038;13.692;2022-09-29T10:08:35;4.50;;;2.27;;
3757;SDS011;1894;51.038;13.692;2022-09-29T10:13:56;3.00;;;2.20;;
3757;SDS011;1894;51.038;13.692;2022-09-29T10:16:31;1.73;;;1.33;;
3757;SDS011;1894;51.038;13.692;2022-09-29T10:19:22;1.90;;;1.63;;
3757;SDS011;1894;51.038;13.692;2022-09-29T10:22:19;2.13;;;1.30;;
3757;SDS011;1894;51.038;13.692;2022-09-29T10:24:52;2.07;;;1.30;;
3757;SDS011;1894;51.038;13.692;2022-09-29T10:27:30;2.07;;;1.60;;
3757;SDS011;1894;51.038;13.692;2022-09-29T10:29:58;3.50;;;2.50;;
3757;SDS011;1894;51.038;13.692;2022-09-29T10:32:29;1.90;;;1.43;;
3757;SDS011;1894;51.038;13.692;2022-09-29T10:35:47;2.53;;;1.60;;
3757;SDS011;1894;51.038;13.692;2022-09-29T10:38:05;1.20;;;1.00;;
3757;SDS011;1894;51.038;13.692;2022-09-29T10:41:05;1.73;;;1.40;;
3757;SDS011;1894;51.038;13.692;2022-09-29T10:43:38;1.53;;;1.13;;
3757;SDS011;1894;51.038;13.692;2022-09-29T10:49:23;2.40;;;1.20;;
3757;SDS011;1894;51.038;13.692;2022-09-29T10:51:56;1.97;;;1.10;;
3757;SDS011;1894;51.038;13.692;2022-09-29T10:54:29;1.73;;;1.00;;
3757;SDS011;1894;51.038;13.692;2022-09-29T10:57:12;1.30;;;1.20;;
3757;SDS011;1894;51.038;13.692;2022-09-29T10:59:45;1.13;;;1.03;;
3757;SDS011;1894;51.038;13.692;2022-09-29T11:02:47;6.60;;;1.40;;
3757;SDS011;1894;51.038;13.692;2022-09-29T11:05:15;3.27;;;1.10;;
3757;SDS011;1894;51.038;13.692;2022-09-29T11:07:47;1.30;;;1.10;;
3757;SDS011;1894;51.038;13.692;2022-09-29T11:10:36;4.43;;;1.03;;
3757;SDS011;1894;51.038;13.692;2022-09-29T11:15:50;2.43;;;1.07;;
3757;SDS011;1894;51.038;13.692;2022-09-29T11:18:21;1.43;;;1.30;;
3757;SDS011;1894;51.038;13.692;2022-09-29T11:21:48;1.90;;;1.60;;
3757;SDS011;1894;51.038;13.692;2022-09-29T11:47:03;1.70;;;1.20;;
3757;SDS011;1894;51.038;13.692;2022-09-29T11:55:59;2.80;;;1.07;;
3757;SDS011;1894;51.038;13.692;2022-09-29T12:14:01;1.37;;;0.90;;
3757;SDS011;1894;51.038;13.692;2022-09-29T12:17:19;3.87;;;1.13;;
3757;SDS011;1894;51.038;13.692;2022-09-29T12:19:51;2.60;;;1.20;;
3757;SDS011;1894;51.038;13.692;2022-09-29T12:22:27;2.77;;;1.30;;
3757;SDS011;1894;51.038;13.692;2022-09-29T12:25:01;4.17;;;1.10;;
3757;SDS011;1894;51.038;13.692;2022-09-29T12:27:35;1.40;;;1.07;;
3757;SDS011;1894;51.038;13.692;2022-09-29T12:30:22;2.47;;;1.00;;
3757;SDS011;1894;51.038;13.692;2022-09-29T12:32:57;1.20;;;1.10;;
3757;SDS011;1894;51.038;13.692;2022-09-29T12:38:51;2.20;;;1.40;;
3757;SDS011;1894;51.038;13.692;2022-09-29T12:41:36;1.90;;;1.10;;
3757;SDS011;1894;51.038;13.692;2022-09-29T12:44:36;3.30;;;1.20;;
3757;SDS011;1894;51.038;13.692;2022-09-29T12:50:18;1.30;;;1.20;;
3757;SDS011;1894;51.038;13.692;2022-09-29T12:53:05;1.80;;;1.33;;
3757;SDS011;1894;51.038;13.692;2022-09-29T12:55:53;1.40;;;1.10;;
3757;SDS011;1894;51.038;13.692;2022-09-29T12:58:36;1.20;;;1.10;;
3757;SDS011;1894;51.038;13.692;2022-09-29T13:01:16;2.00;;;1.00;;
3757;SDS011;1894;51.038;13.692;2022-09-29T13:07:05;1.93;;;1.10;;
3757;SDS011;1894;51.038;13.692;2022-09-29T13:13:02;3.77;;;1.00;;
3757;SDS011;1894;51.038;13.692;2022-09-29T13:16:16;2.90;;;0.80;;
3757;SDS011;1894;51.038;13.692;2022-09-29T13:19:18;2.67;;;1.00;;
3757;SDS011;1894;51.038;13.692;2022-09-29T13:31:04;1.43;;;1.17;;
3757;SDS011;1894;51.038;13.692;2022-09-29T13:33:37;4.73;;;1.70;;
3757;SDS011;1894;51.038;13.692;2022-09-29T13:36:05;2.43;;;1.53;;
3757;SDS011;1894;51.038;13.692;2022-09-29T13:38:37;1.63;;;1.20;;
3757;SDS011;1894;51.038;13.692;2022-09-29T13:44:18;3.47;;;1.10;;
3757;SDS011;1894;51.038;13.692;2022-09-29T13:46:53;6.27;;;2.10;;
3757;SDS011;1894;51.038;13.692;2022-09-29T13:51:57;1.43;;;1.13;;
3757;SDS011;1894;51.038;13.692;2022-09-29T13:54:40;1.70;;;1.20;;
3757;SDS011;1894;51.038;13.692;2022-09-29T14:05:34;1.70;;;1.00;;
3757;SDS011;1894;51.038;13.692;2022-09-29T14:15:39;3.10;;;1.10;;
3757;SDS011;1894;51.038;13.692;2022-09-29T14:18:52;4.00;;;1.20;;
3757;SDS011;1894;51.038;13.692;2022-09-29T14:35:19;2.57;;;1.90;;
3757;SDS011;1894;51.038;13.692;2022-09-29T14:38:01;4.30;;;1.10;;
3757;SDS011;1894;51.038;13.692;2022-09-29T14:43:46;1.40;;;1.30;;
3757;SDS011;1894;51.038;13.692;2022-09-29T14:49:27;2.73;;;1.87;;
3757;SDS011;1894;51.038;13.692;2022-09-29T15:01:15;6.27;;;2.90;;
3757;SDS011;1894;51.038;13.692;2022-09-29T15:03:53;3.77;;;2.03;;
3757;SDS011;1894;51.038;13.692;2022-09-29T15:06:32;4.47;;;1.30;;
3757;SDS011;1894;51.038;13.692;2022-09-29T15:09:14;7.10;;;4.30;;
3757;SDS011;1894;51.038;13.692;2022-09-29T15:11:49;11.53;;;3.27;;
3757;SDS011;1894;51.038;13.692;2022-09-29T15:19:48;4.60;;;1.90;;
3757;SDS011;1894;51.038;13.692;2022-09-29T15:22:29;3.30;;;2.10;;
3757;SDS011;1894;51.038;13.692;2022-09-29T15:25:42;3.37;;;2.90;;
3757;SDS011;1894;51.038;13.692;2022-09-29T15:30:43;2.20;;;1.20;;
3757;SDS011;1894;51.038;13.692;2022-09-29T15:33:17;2.30;;;1.00;;
3757;SDS011;1894;51.038;13.692;2022-09-29T15:35:58;4.17;;;3.00;;
3757;SDS011;1894;51.038;13.692;2022-09-29T15:38:32;3.90;;;3.00;;
3757;SDS011;1894;51.038;13.692;2022-09-29T15:43:40;9.40;;;6.03;;
3757;SDS011;1894;51.038;13.692;2022-09-29T15:46:23;4.20;;;3.27;;
3757;SDS011;1894;51.038;13.692;2022-09-29T15:51:42;3.47;;;2.20;;
3757;SDS011;1894;51.038;13.692;2022-09-29T15:54:31;2.97;;;1.77;;
3757;SDS011;1894;51.038;13.692;2022-09-29T15:57:09;2.80;;;1.90;;
3757;SDS011;1894;51.038;13.692;2022-09-29T16:03:07;2.93;;;2.47;;
3757;SDS011;1894;51.038;13.692;2022-09-29T16:06:06;2.37;;;2.17;;
3757;SDS011;1894;51.038;13.692;2022-09-29T16:08:46;9.57;;;3.27;;
3757;SDS011;1894;51.038;13.692;2022-09-29T16:11:18;4.33;;;2.00;;
3757;SDS011;1894;51.038;13.692;2022-09-29T16:14:09;2.90;;;2.50;;
3757;SDS011;1894;51.038;13.692;2022-09-29T16:16:46;5.40;;;2.73;;
3757;SDS011;1894;51.038;13.692;2022-09-29T16:21:53;4.73;;;3.17;;
3757;SDS011;1894;51.038;13.692;2022-09-29T16:24:26;4.10;;;2.97;;
3757;SDS011;1894;51.038;13.692;2022-09-29T16:27:02;5.80;;;3.40;;
3757;SDS011;1894;51.038;13.692;2022-09-29T16:29:33;5.70;;;3.27;;
3757;SDS011;1894;51.038;13.692;2022-09-29T16:41:06;8.77;;;6.50;;
3757;SDS011;1894;51.038;13.692;2022-09-29T16:58:08;11.60;;;6.60;;
3757;SDS011;1894;51.038;13.692;2022-09-29T17:00:38;12.63;;;7.97;;
3757;SDS011;1894;51.038;13.692;2022-09-29T17:03:06;10.93;;;7.83;;
3757;SDS011;1894;51.038;13.692;2022-09-29T17:05:36;15.30;;;7.77;;
3757;SDS011;1894;51.038;13.692;2022-09-29T17:08:11;12.80;;;8.60;;
3757;SDS011;1894;51.038;13.692;2022-09-29T17:10:55;12.90;;;10.00;;
3757;SDS011;1894;51.038;13.692;2022-09-29T17:13:23;15.47;;;9.77;;
3757;SDS011;1894;51.038;13.692;2022-09-29T17:15:51;22.83;;;13.23;;
3757;SDS011;1894;51.038;13.692;2022-09-29T17:18:28;10.63;;;7.50;;
3757;SDS011;1894;51.038;13.692;2022-09-29T17:20:55;13.57;;;9.30;;
3757;SDS011;1894;51.038;13.692;2022-09-29T17:23:22;18.23;;;10.23;;
3757;SDS011;1894;51.038;13.692;2022-09-29T17:25:50;15.30;;;9.50;;
3757;SDS011;1894;51.038;13.692;2022-09-29T17:28:18;13.90;;;8.43;;
3757;SDS011;1894;51.038;13.692;2022-09-29T17:30:49;13.07;;;9.13;;
3757;SDS011;1894;51.038;13.692;2022-09-29T17:33:18;10.20;;;7.40;;
3757;SDS011;1894;51.038;13.692;2022-09-29T17:35:46;14.20;;;9.30;;
3757;SDS011;1894;51.038;13.692;2022-09-29T17:38:21;11.70;;;8.10;;
3757;SDS011;1894;51.038;13.692;2022-09-29T17:40:50;13.77;;;9.67;;
3757;SDS011;1894;51.038;13.692;2022-09-29T17:43:25;12.50;;;9.47;;
3757;SDS011;1894;51.038;13.692;2022-09-29T17:45:53;12.63;;;9.27;;
3757;SDS011;1894;51.038;13.692;2022-09-29T17:48:23;13.50;;;9.20;;
3757;SDS011;1894;51.038;13.692;2022-09-29T17:50:52;14.10;;;8.97;;
3757;SDS011;1894;51.038;13.692;2022-09-29T17:53:22;12.80;;;9.37;;
3757;SDS011;1894;51.038;13.692;2022-09-29T17:55:51;10.57;;;7.43;;
3757;SDS011;1894;51.038;13.692;2022-09-29T17:58:21;14.73;;;8.90;;
3757;SDS011;1894;51.038;13.692;2022-09-29T18:00:49;46.77;;;24.60;;
3757;SDS011;1894;51.038;13.692;2022-09-29T18:03:19;17.67;;;12.50;;
3757;SDS011;1894;51.038;13.692;2022-09-29T18:05:48;20.83;;;13.20;;
3757;SDS011;1894;51.038;13.692;2022-09-29T18:08:26;12.43;;;8.70;;
3757;SDS011;1894;51.038;13.692;2022-09-29T18:10:56;11.03;;;8.90;;
3757;SDS011;1894;51.038;13.692;2022-09-29T18:13:26;20.77;;;10.30;;
3757;SDS011;1894;51.038;13.692;2022-09-29T18:15:59;12.10;;;9.23;;
3757;SDS011;1894;51.038;13.692;2022-09-29T18:18:27;14.90;;;9.33;;
3757;SDS011;1894;51.038;13.692;2022-09-29T18:20:54;15.63;;;10.07;;
3757;SDS011;1894;51.038;13.692;2022-09-29T18:23:22;18.33;;;12.00;;
3757;SDS011;1894;51.038;13.692;2022-09-29T18:25:50;15.70;;;11.60;;
3757;SDS011;1894;51.038;13.692;2022-09-29T18:28:18;17.93;;;9.47;;
3757;SDS011;1894;51.038;13.692;2022-09-29T18:30:46;22.60;;;13.03;;
3757;SDS011;1894;51.038;13.692;2022-09-29T18:33:18;13.97;;;9.50;;
3757;SDS011;1894;51.038;13.692;2022-09-29T18:35:53;24.70;;;11.33;;
3757;SDS011;1894;51.038;13.692;2022-09-29T18:38:21;12.90;;;9.20;;
3757;SDS011;1894;51.038;13.692;2022-09-29T18:40:52;14.70;;;9.60;;
3757;SDS011;1894;51.038;13.692;2022-09-29T18:43:21;13.20;;;7.50;;
3757;SDS011;1894;51.038;13.692;2022-09-29T18:45:51;15.50;;;6.87;;
3757;SDS011;1894;51.038;13.692;2022-09-29T18:48:22;10.97;;;7.90;;
3757;SDS011;1894;51.038;13.692;2022-09-29T18:50:50;12.83;;;9.80;;
3757;SDS011;1894;51.038;13.692;2022-09-29T18:53:19;12.43;;;9.13;;
3757;SDS011;1894;51.038;13.692;2022-09-29T18:55:48;15.50;;;10.80;;
3757;SDS011;1894;51.038;13.692;2022-09-29T18:58:17;19.37;;;12.50;;
3757;SDS011;1894;51.038;13.692;2022-09-29T19:00:47;12.93;;;8.27;;
3757;SDS011;1894;51.038;13.692;2022-09-29T19:03:19;12.77;;;8.60;;
3757;SDS011;1894;51.038;13.692;2022-09-29T19:05:49;13.87;;;8.40;;
3757;SDS011;1894;51.038;13.692;2022-09-29T19:08:16;11.40;;;6.90;;
3757;SDS011;1894;51.038;13.692;2022-09-29T19:10:49;14.63;;;8.80;;
3757;SDS011;1894;51.038;13.692;2022-09-29T19:13:23;13.40;;;8.03;;
3757;SDS011;1894;51.038;13.692;2022-09-29T19:15:54;17.00;;;7.60;;
3757;SDS011;1894;51.038;13.692;2022-09-29T19:18:23;10.53;;;8.90;;
3757;SDS011;1894;51.038;13.692;2022-09-29T19:20:51;15.03;;;8.97;;
3757;SDS011;1894;51.038;13.692;2022-09-29T19:23:24;19.83;;;10.00;;
3757;SDS011;1894;51.038;13.692;2022-09-29T19:25:52;13.50;;;8.43;;
3757;SDS011;1894;51.038;13.692;2022-09-29T19:28:20;18.50;;;9.77;;
3757;SDS011;1894;51.038;13.692;2022-09-29T19:30:49;15.57;;;9.00;;
3757;SDS011;1894;51.038;13.692;2022-09-29T19:33:18;12.40;;;8.47;;
3757;SDS011;1894;51.038;13.692;2022-09-29T19:35:48;10.37;;;9.03;;
3757;SDS011;1894;51.038;13.692;2022-09-29T19:38:20;12.23;;;8.93;;